Time;durP1;ratioP1;P1;durP2;ratioP2;P2;SDS_P1;SDS_P2;PMS_P1;PMS_P2;Temp;Humidity;BMP_temperature;BMP_pressure;BME280_temperature;BME280_humidity;BME280_pressure;Samples;Min_cycle;Max_cycle;Signal;HPM_P1;HPM_P2
2021/11/29 04:31:41;;;;;;;0.80;0.80;;;;;;;-2.67;62.94;90612.00;6132228;22;1786858;-77
2021/11/29 04:34:08;;;;;;;1.00;0.90;;;;;;;-2.57;62.35;90606.91;6180884;23;20013;-77
2021/11/29 04:36:34;;;;;;;0.80;0.80;;;;;;;-2.51;62.91;90616.91;6180812;23;20092;-77
2021/11/29 04:39:01;;;;;;;0.88;0.88;;;;;;;-2.45;62.66;90607.47;6179263;23;20005;-77
2021/11/29 04:41:26;;;;;;;0.80;0.80;;;;;;;-2.34;64.90;90621.06;6164028;23;20011;-78
2021/11/29 04:43:52;;;;;;;0.80;0.80;;;;;;;-2.37;65.33;90627.44;6149231;23;20022;-77
2021/11/29 04:46:18;;;;;;;0.90;0.90;;;;;;;-2.44;64.12;90632.03;6149313;23;19998;-78
2021/11/29 04:48:44;;;;;;;1.45;0.80;;;;;;;-2.39;63.03;90628.72;6150678;23;20066;-77
2021/11/29 04:51:10;;;;;;;0.85;0.85;;;;;;;-2.27;62.27;90628.50;6149277;23;20336;-78
2021/11/29 04:53:36;;;;;;;0.80;0.80;;;;;;;-2.31;61.13;90625.69;6125004;23;20016;-77
2021/11/29 04:56:40;;;;;;;0.80;0.80;;;;;;;-2.13;61.46;90638.00;6151121;23;20094;-77
2021/11/29 04:59:06;;;;;;;0.88;0.88;;;;;;;-2.04;60.32;90640.09;6150691;23;20112;-77
2021/11/29 05:01:32;;;;;;;1.65;1.17;;;;;;;-2.03;60.84;90646.75;6151048;23;20025;-79
2021/11/29 05:04:16;;;;;;;0.90;0.90;;;;;;;-2.00;61.14;90647.00;6150937;23;20013;-79
2021/11/29 05:06:42;;;;;;;1.02;1.00;;;;;;;-2.06;63.16;90660.84;6150345;23;20013;-77
2021/11/29 05:09:11;;;;;;;1.00;0.90;;;;;;;-2.13;63.50;90662.88;6149026;23;20334;-77
2021/11/29 05:11:37;;;;;;;0.80;0.80;;;;;;;-2.21;63.47;90671.06;6150850;23;20013;-77
2021/11/29 05:14:03;;;;;;;0.80;0.80;;;;;;;-2.22;63.59;90669.53;6150537;23;20067;-77
2021/11/29 05:16:29;;;;;;;1.58;0.80;;;;;;;-2.25;63.55;90675.94;6150544;23;20102;-77
2021/11/29 05:18:55;;;;;;;6.65;0.90;;;;;;;-2.26;63.11;90678.75;6150783;23;20004;-77
2021/11/29 05:21:21;;;;;;;0.80;0.80;;;;;;;-2.15;61.66;90677.75;6149591;23;20013;-77
2021/11/29 05:23:49;;;;;;;0.80;0.80;;;;;;;-1.99;59.69;90681.88;6150947;23;20008;-77
2021/11/29 05:26:23;;;;;;;0.80;0.80;;;;;;;-1.77;60.08;90686.03;6149755;23;20040;-77
2021/11/29 05:28:52;;;;;;;0.85;0.82;;;;;;;-1.69;59.16;90690.63;6149334;23;20013;-77
2021/11/29 05:31:17;;;;;;;1.05;0.95;;;;;;;-1.73;60.50;90694.75;6150548;22;20033;-77
2021/11/29 05:33:43;;;;;;;0.82;0.82;;;;;;;-1.77;60.05;90702.19;6150908;23;20445;-77
2021/11/29 05:36:09;;;;;;;0.90;0.90;;;;;;;-1.78;60.48;90705.78;6124366;23;20014;-77
2021/11/29 05:38:35;;;;;;;0.70;0.70;;;;;;;-1.76;60.27;90706.28;6150199;23;20071;-77
2021/11/29 05:41:01;;;;;;;0.70;0.70;;;;;;;-1.75;59.99;90714.75;6124875;23;20013;-77
2021/11/29 05:43:27;;;;;;;2.22;0.95;;;;;;;-1.72;60.33;90709.09;6150809;23;20025;-77
2021/11/29 05:45:54;;;;;;;0.93;0.93;;;;;;;-1.72;59.19;90720.13;6149957;23;20023;-75
2021/11/29 05:48:20;;;;;;;1.65;0.90;;;;;;;-1.70;60.18;90717.31;6124180;23;20089;-76
2021/11/29 05:50:46;;;;;;;0.73;0.73;;;;;;;-1.70;59.59;90718.09;6123698;23;20031;-76
2021/11/29 05:53:11;;;;;;;0.70;0.70;;;;;;;-1.70;59.41;90728.34;6075164;23;20460;-77
2021/11/29 05:55:37;;;;;;;1.00;0.88;;;;;;;-1.73;62.23;90725.53;6124479;23;20463;-76
2021/11/29 05:58:03;;;;;;;0.80;0.80;;;;;;;-1.81;62.48;90729.34;6123393;23;20024;-76
2021/11/29 06:00:29;;;;;;;0.80;0.80;;;;;;;-1.91;63.03;90735.25;6148788;23;20272;-77
2021/11/29 06:02:55;;;;;;;0.80;0.80;;;;;;;-1.97;62.25;90736.25;6123311;23;20467;-77
2021/11/29 06:05:23;;;;;;;0.75;0.75;;;;;;;-1.97;62.55;90746.50;6099073;23;20006;-77
2021/11/29 06:07:54;;;;;;;1.13;1.00;;;;;;;-1.95;61.37;90746.25;6149011;23;20013;-77
2021/11/29 06:10:21;;;;;;;0.80;0.80;;;;;;;-1.88;61.12;90751.91;6123251;23;20009;-77
2021/11/29 06:12:47;;;;;;;0.80;0.80;;;;;;;-1.82;61.79;90753.47;6099065;23;20012;-77
2021/11/29 06:15:15;;;;;;;0.75;0.75;;;;;;;-1.78;59.93;90751.16;6149467;23;20014;-77
2021/11/29 06:17:42;;;;;;;1.23;1.13;;;;;;;-1.73;60.40;90764.03;6151383;23;20375;-77
2021/11/29 06:20:08;;;;;;;3.00;0.90;;;;;;;-1.65;60.55;90760.19;6150644;23;20023;-76
2021/11/29 06:22:34;;;;;;;1.23;1.10;;;;;;;-1.66;60.95;90763.78;6122683;23;20017;-76
2021/11/29 06:25:00;;;;;;;0.80;0.80;;;;;;;-1.66;60.29;90764.53;6149652;23;20336;-77
2021/11/29 06:27:26;;;;;;;0.70;0.70;;;;;;;-1.68;59.94;90774.28;6123426;23;20015;-76
2021/11/29 06:29:52;;;;;;;0.80;0.80;;;;;;;-1.74;61.00;90778.63;6149219;23;20016;-77
2021/11/29 06:32:18;;;;;;;0.77;0.77;;;;;;;-1.73;61.45;90787.13;6117381;23;20060;-77
2021/11/29 06:34:44;;;;;;;1.60;0.80;;;;;;;-1.77;61.25;90788.63;6123820;23;20017;-77
2021/11/29 06:37:11;;;;;;;0.98;0.90;;;;;;;-1.79;60.83;90795.81;6149977;23;20016;-76
2021/11/29 06:39:38;;;;;;;0.80;0.80;;;;;;;-1.78;61.29;90792.22;6149093;23;20013;-76
2021/11/29 06:42:05;;;;;;;0.80;0.80;;;;;;;-1.75;61.77;90794.28;6149398;23;20047;-76
2021/11/29 06:44:32;;;;;;;0.70;0.70;;;;;;;-1.70;60.98;90794.28;6148531;23;20464;-76
2021/11/29 06:46:57;;;;;;;0.70;0.70;;;;;;;-1.63;58.89;90799.94;6147543;23;20440;-76
2021/11/29 06:49:23;;;;;;;0.70;0.70;;;;;;;-1.53;58.29;90800.00;6148574;23;20041;-76
2021/11/29 06:51:50;;;;;;;0.70;0.70;;;;;;;-1.41;57.58;90804.88;6099541;23;20006;-75
2021/11/29 06:54:16;;;;;;;0.80;0.80;;;;;;;-1.26;57.63;90816.97;6147494;23;20074;-75
2021/11/29 06:56:42;;;;;;;0.70;0.70;;;;;;;-1.22;57.25;90815.41;6149194;23;20006;-75
2021/11/29 06:59:08;;;;;;;0.75;0.75;;;;;;;-1.16;57.71;90814.41;6149109;23;20028;-77
2021/11/29 07:01:34;;;;;;;0.60;0.60;;;;;;;-1.07;56.24;90817.25;6149291;23;20005;-75
2021/11/29 07:04:01;;;;;;;0.70;0.70;;;;;;;-0.96;56.89;90820.59;6147286;23;20521;-75
2021/11/29 07:06:27;;;;;;;0.80;0.80;;;;;;;-0.77;56.60;90820.84;6149181;23;20001;-75
2021/11/29 07:08:53;;;;;;;0.80;0.80;;;;;;;0.26;54.58;90827.31;6147183;23;20017;-76
2021/11/29 07:11:19;;;;;;;0.80;0.80;;;;;;;1.20;51.55;90831.69;6147107;22;20001;-75
2021/11/29 07:13:45;;;;;;;0.80;0.80;;;;;;;1.19;51.03;90835.28;6147231;23;20128;-75
2021/11/29 07:16:11;;;;;;;0.68;0.68;;;;;;;1.04;51.75;90836.94;6148470;23;20445;-77
2021/11/29 07:18:37;;;;;;;0.70;0.70;;;;;;;0.87;51.69;90848.66;6122782;23;20349;-75
2021/11/29 07:21:04;;;;;;;0.70;0.70;;;;;;;0.82;51.67;90859.75;6122856;23;20006;-75
2021/11/29 07:23:30;;;;;;;1.80;1.05;;;;;;;0.91;52.07;90859.97;6148849;23;20100;-75
2021/11/29 07:25:55;;;;;;;2.08;1.05;;;;;;;1.40;50.89;90862.47;6148516;23;20143;-78
2021/11/29 07:28:21;;;;;;;0.75;0.75;;;;;;;2.21;49.52;90862.03;6147692;23;20338;-77
2021/11/29 07:30:47;;;;;;;0.70;0.70;;;;;;;3.04;47.05;90865.16;6148712;23;20018;-76
2021/11/29 07:33:12;;;;;;;0.68;0.68;;;;;;;3.41;45.81;90872.13;6122930;22;20486;-77
2021/11/29 07:35:38;;;;;;;0.75;0.70;;;;;;;3.35;45.97;90878.44;6148283;23;20349;-76
2021/11/29 07:38:04;;;;;;;0.80;0.80;;;;;;;3.13;45.60;90891.94;6122845;23;20010;-77
2021/11/29 07:40:31;;;;;;;0.82;0.77;;;;;;;3.05;47.02;90890.72;6122949;23;20613;-76
2021/11/29 07:43:00;;;;;;;0.70;0.70;;;;;;;3.41;45.28;90902.41;6148719;23;20024;-76
2021/11/29 07:45:27;;;;;;;0.70;0.70;;;;;;;3.85;45.63;90896.84;6148458;23;19994;-77
2021/11/29 07:47:52;;;;;;;0.50;0.50;;;;;;;3.69;44.70;90900.69;6148535;23;20016;-78
2021/11/29 07:50:37;;;;;;;0.75;0.73;;;;;;;3.79;43.74;90903.16;6152495;23;20006;-77
2021/11/29 07:53:04;;;;;;;0.60;0.60;;;;;;;3.81;43.56;90903.63;6152441;23;20464;-77
2021/11/29 07:55:30;;;;;;;0.60;0.60;;;;;;;4.26;41.85;90903.94;6152933;23;20429;-78
2021/11/29 08:01:50;;;;;;;2.63;1.23;;;;;;;5.05;38.23;90910.75;6154528;23;20016;-76
2021/11/29 08:04:15;;;;;;;3.20;1.50;;;;;;;6.12;39.22;90906.91;6103802;23;20033;-77
2021/11/29 08:10:37;;;;;;;0.80;0.80;;;;;;;8.67;33.51;90916.31;6154807;23;20062;-78
2021/11/29 08:16:57;;;;;;;;;;;;;;;8.50;31.72;90928.34;6153011;23;20209;-77
2021/11/29 08:19:24;;;;;;;1.63;1.13;;;;;;;8.26;32.31;90922.81;6153273;23;19912;-76
2021/11/29 08:21:50;;;;;;;2.45;1.40;;;;;;;7.39;36.45;90936.63;6153074;23;20001;-78
2021/11/29 08:24:16;;;;;;;1.95;1.20;;;;;;;7.45;34.45;90947.63;6078786;23;20079;-78
2021/11/29 08:34:50;;;;;;;;;;;;;;;11.38;30.08;90945.28;6155509;23;20106;-78
2021/11/29 08:37:15;;;;;;;3.72;1.60;;;;;;;11.19;30.06;90951.06;6154830;23;19913;-78
2021/11/29 08:39:41;;;;;;;0.70;0.70;;;;;;;11.92;26.40;90951.38;6128721;23;20005;-78
2021/11/29 08:45:37;;;;;;;5.65;2.63;;;;;;;11.35;26.62;90959.03;6153066;23;20014;-77
2021/11/29 08:48:24;;;;;;;4.40;1.58;;;;;;;10.66;26.52;90962.44;6152433;23;20001;-76
2021/11/29 08:50:52;;;;;;;4.25;1.55;;;;;;;9.85;27.29;90967.06;6151878;23;20322;-76
2021/11/29 08:53:21;;;;;;;3.05;1.50;;;;;;;8.88;30.65;90982.41;6152510;23;20009;-76
2021/11/29 08:55:48;;;;;;;2.85;1.40;;;;;;;8.20;32.38;90976.22;6151497;23;20017;-76
2021/11/29 08:58:14;;;;;;;3.42;1.30;;;;;;;7.98;32.96;90996.13;6151996;23;20005;-80
2021/11/29 09:00:43;;;;;;;1.67;1.10;;;;;;;7.23;31.55;90997.97;6152393;23;20048;-79
2021/11/29 09:03:09;;;;;;;2.47;1.08;;;;;;;7.32;34.48;91000.59;6153544;23;20362;-80
2021/11/29 09:05:38;;;;;;;0.90;0.70;;;;;;;7.70;32.75;91001.63;6153387;23;20085;-77
2021/11/29 09:12:02;;;;;;;3.40;1.42;;;;;;;8.67;33.48;91010.22;6152734;23;20562;-77
2021/11/29 09:15:04;;;;;;;1.73;0.90;;;;;;;9.05;31.47;91012.13;6153156;23;20102;-77
2021/11/29 09:17:30;;;;;;;7.28;1.33;;;;;;;9.30;29.60;91013.91;6153282;23;20020;-77
2021/11/29 09:19:57;;;;;;;2.38;1.30;;;;;;;9.27;31.39;91017.13;6153343;23;20006;-77
2021/11/29 09:22:42;;;;;;;0.68;0.60;;;;;;;9.27;29.04;91016.38;6152752;23;20020;-80
2021/11/29 09:25:09;;;;;;;2.95;1.30;;;;;;;9.09;28.37;91026.09;6126525;23;20071;-79
2021/11/29 09:27:36;;;;;;;2.33;1.10;;;;;;;8.20;30.18;91028.34;6152178;23;20332;-78
2021/11/29 09:30:23;;;;;;;1.58;1.00;;;;;;;7.49;31.78;91030.03;6126447;23;20010;-77
2021/11/29 09:32:49;;;;;;;4.32;1.42;;;;;;;7.68;32.95;91031.66;6156193;23;20014;-77
2021/11/29 09:35:16;;;;;;;1.95;1.00;;;;;;;8.07;33.67;91035.22;6154146;23;20013;-77
2021/11/29 09:38:02;;;;;;;1.65;1.00;;;;;;;8.36;32.78;91041.69;6255675;22;20018;-76
2021/11/29 09:40:35;;;;;;;2.42;1.08;;;;;;;8.43;30.80;91042.78;6255161;22;20047;-77
2021/11/29 09:43:04;;;;;;;1.73;1.02;;;;;;;8.63;30.41;91040.63;6255370;22;20014;-77
2021/11/29 09:45:31;;;;;;;1.90;1.00;;;;;;;8.18;27.23;91046.13;6151914;23;20059;-77
2021/11/29 09:47:57;;;;;;;1.25;0.98;;;;;;;7.85;28.18;91042.09;6254913;22;20071;-77
2021/11/29 09:50:25;;;;;;;8.82;1.10;;;;;;;6.56;31.36;91043.09;6254650;22;20028;-77
2021/11/29 09:52:52;;;;;;;2.53;1.20;;;;;;;6.42;33.72;91048.34;6151955;23;20006;-77
2021/11/29 09:55:21;;;;;;;1.90;1.00;;;;;;;6.64;31.40;91056.16;6254123;22;20013;-76
2021/11/29 09:57:48;;;;;;;0.70;0.70;;;;;;;6.86;33.33;91059.78;6153020;23;20010;-78
2021/11/29 10:00:22;;;;;;;1.83;1.10;;;;;;;6.74;32.38;91055.13;6153044;23;20036;-77
2021/11/29 10:02:49;;;;;;;6.53;1.20;;;;;;;7.12;33.76;91059.16;6252309;22;20026;-78
2021/11/29 10:05:16;;;;;;;1.25;1.00;;;;;;;7.14;31.79;91057.00;6149940;23;20002;-76
2021/11/29 10:07:46;;;;;;;3.58;1.45;;;;;;;7.69;30.36;91067.03;6149638;23;20017;-78
2021/11/29 10:10:24;;;;;;;2.25;1.10;;;;;;;8.64;32.65;91073.44;6149448;23;20044;-75
2021/11/29 10:12:53;;;;;;;1.48;1.00;;;;;;;9.62;28.99;91058.78;6252211;22;20044;-77
2021/11/29 10:15:30;;;;;;;1.20;0.88;;;;;;;10.45;28.49;91062.66;6149620;23;20080;-77
2021/11/29 10:18:16;;;;;;;2.17;1.17;;;;;;;10.80;26.77;91068.34;6149776;23;20314;-78
2021/11/29 10:20:50;;;;;;;2.63;1.10;;;;;;;10.74;26.40;91068.88;6148930;23;20009;-76
2021/11/29 10:23:23;;;;;;;0.70;0.70;;;;;;;10.46;27.96;91068.63;6150075;23;20063;-77
2021/11/29 10:25:51;;;;;;;1.15;0.80;;;;;;;10.38;27.04;91083.28;6148676;23;20010;-77
2021/11/29 10:28:45;;;;;;;1.92;0.90;;;;;;;9.89;27.84;91075.13;6149367;23;20394;-77
2021/11/29 10:31:31;;;;;;;1.73;1.00;;;;;;;9.53;28.36;91077.09;6266811;22;20090;-77
2021/11/29 10:34:05;;;;;;;1.95;1.05;;;;;;;9.34;29.53;91085.31;6272685;22;20339;-77
2021/11/29 10:36:39;;;;;;;5.50;1.20;;;;;;;9.23;29.10;91085.94;6275149;22;20328;-77
2021/11/29 10:39:12;;;;;;;0.70;0.70;;;;;;;8.93;28.86;91081.41;6274094;22;20012;-77
2021/11/29 10:41:43;;;;;;;2.65;0.80;;;;;;;9.32;26.43;91091.91;6274674;22;20375;-76
2021/11/29 10:44:12;;;;;;;1.00;0.80;;;;;;;8.88;27.66;91099.06;6275325;22;20037;-77
2021/11/29 10:46:42;;;;;;;1.95;0.90;;;;;;;8.43;26.46;91102.00;6274170;22;20031;-78
2021/11/29 10:49:12;;;;;;;2.80;1.38;;;;;;;8.73;27.01;91095.84;6273607;22;20090;-77
2021/11/29 10:51:40;;;;;;;2.72;1.20;;;;;;;8.96;30.40;91101.69;6273817;22;20043;-77
2021/11/29 10:54:09;;;;;;;3.15;1.40;;;;;;;9.36;29.02;91106.66;6273610;22;20075;-77
2021/11/29 10:56:38;;;;;;;1.88;1.08;;;;;;;9.22;24.01;91090.41;6273907;22;20087;-77
2021/11/29 10:59:06;;;;;;;2.13;1.20;;;;;;;9.09;28.29;91109.63;6272428;22;20054;-76
2021/11/29 11:01:37;;;;;;;0.80;0.80;;;;;;;9.52;28.63;91112.13;6273513;22;20012;-76
2021/11/29 11:04:06;;;;;;;1.20;0.90;;;;;;;9.30;27.18;91105.31;6273973;22;20087;-77
2021/11/29 11:06:41;;;;;;;1.35;0.95;;;;;;;9.77;25.80;91112.34;6273786;22;20000;-77
2021/11/29 11:09:16;;;;;;;0.73;0.70;;;;;;;9.45;25.82;91116.31;6273821;22;20343;-78
2021/11/29 11:11:51;;;;;;;0.93;0.80;;;;;;;9.00;23.01;91121.94;6273946;22;20022;-77
2021/11/29 11:14:20;;;;;;;1.17;0.90;;;;;;;9.14;26.72;91122.50;6274207;22;20008;-78
2021/11/29 11:17:13;;;;;;;1.20;0.80;;;;;;;9.40;26.21;91124.31;6246477;22;20010;-77
2021/11/29 11:19:46;;;;;;;0.93;0.70;;;;;;;8.67;25.92;91122.41;6273616;22;20011;-76
2021/11/29 11:22:37;;;;;;;1.50;0.63;;;;;;;7.86;24.79;91124.41;6272345;22;20069;-77
2021/11/29 11:25:10;;;;;;;1.35;0.98;;;;;;;7.42;25.97;91126.06;6274168;22;20402;-75
2021/11/29 11:27:49;;;;;;;2.50;1.23;;;;;;;7.64;28.25;91127.09;6273755;22;20018;-77
2021/11/29 11:30:16;;;;;;;0.98;0.80;;;;;;;8.74;28.20;91136.53;6273457;22;20091;-76
2021/11/29 11:32:48;;;;;;;0.90;0.90;;;;;;;9.43;27.42;91126.31;6154153;22;20099;-76
2021/11/29 11:35:18;;;;;;;1.50;0.95;;;;;;;9.19;26.10;91127.59;6148302;23;20013;-76
2021/11/29 11:37:55;;;;;;;1.08;0.80;;;;;;;9.88;25.67;91139.66;6149048;23;20013;-76
2021/11/29 11:40:27;;;;;;;1.05;0.80;;;;;;;10.28;27.28;91135.97;6123464;23;20014;-76
2021/11/29 11:42:54;;;;;;;0.90;0.75;;;;;;;9.83;23.12;91141.72;6148772;23;20013;-77
2021/11/29 11:45:22;;;;;;;1.13;0.90;;;;;;;10.11;24.02;91153.28;6149077;23;20490;-77
2021/11/29 11:47:50;;;;;;;2.50;1.33;;;;;;;9.83;24.40;91152.16;6148688;23;20395;-76
2021/11/29 11:50:19;;;;;;;1.10;0.90;;;;;;;10.17;24.43;91140.78;6148720;23;20089;-76
2021/11/29 11:52:45;;;;;;;2.17;1.15;;;;;;;10.58;22.94;91145.34;6148551;23;20010;-77
2021/11/29 11:55:13;;;;;;;1.48;1.00;;;;;;;11.01;21.91;91146.09;6148452;23;20314;-77
2021/11/29 11:57:41;;;;;;;2.00;1.17;;;;;;;11.11;22.48;91152.81;6148767;23;20009;-77
2021/11/29 12:00:28;;;;;;;1.10;0.80;;;;;;;10.96;23.07;91147.06;6148665;23;20081;-77
2021/11/29 12:03:04;;;;;;;1.08;0.90;;;;;;;11.15;22.37;91166.81;6149185;23;20017;-77
2021/11/29 12:05:32;;;;;;;1.13;0.75;;;;;;;11.12;22.38;91157.72;6149488;23;20017;-79
2021/11/29 12:07:58;;;;;;;8.88;6.30;;;;;;;10.27;23.60;91160.56;6148779;23;20010;-77
2021/11/29 12:10:45;;;;;;;1.10;0.88;;;;;;;9.75;21.33;91158.97;6148692;23;20013;-78
2021/11/29 12:13:11;;;;;;;1.80;1.00;;;;;;;10.12;24.52;91169.72;6148577;23;20021;-78
2021/11/29 12:15:46;;;;;;;1.20;1.00;;;;;;;10.25;22.03;91157.53;6148840;23;20077;-77
2021/11/29 12:18:41;;;;;;;1.30;0.90;;;;;;;10.74;23.53;91157.84;6148858;23;20014;-77
2021/11/29 12:21:26;;;;;;;1.60;0.90;;;;;;;10.89;23.05;91165.13;6135481;23;20020;-77
2021/11/29 12:23:56;;;;;;;1.58;0.98;;;;;;;11.15;23.13;91164.94;6148578;23;20009;-78
2021/11/29 12:26:49;;;;;;;1.35;0.85;;;;;;;10.82;22.91;91167.50;6148458;23;20033;-78
2021/11/29 12:29:24;;;;;;;0.95;0.80;;;;;;;10.36;21.04;91159.47;6148520;23;20009;-77
2021/11/29 12:32:02;;;;;;;1.58;1.10;;;;;;;10.91;21.67;91167.44;6148428;23;20493;-77
2021/11/29 12:34:43;;;;;;;1.52;1.10;;;;;;;11.03;22.82;91176.13;6122099;23;20036;-78
2021/11/29 12:37:30;;;;;;;1.00;0.90;;;;;;;11.04;21.75;91180.28;6148271;23;20010;-77
2021/11/29 12:39:59;;;;;;;1.60;1.05;;;;;;;11.36;22.16;91178.00;6121749;23;20017;-78
2021/11/29 12:42:27;;;;;;;1.33;0.88;;;;;;;11.21;21.65;91183.84;6098188;23;20001;-78
2021/11/29 12:45:00;;;;;;;1.38;0.90;;;;;;;10.98;22.50;91178.94;6123547;23;20041;-77
2021/11/29 12:47:32;;;;;;;1.02;0.85;;;;;;;10.53;23.15;91195.22;6123821;23;20067;-77
2021/11/29 12:50:01;;;;;;;1.17;1.00;;;;;;;9.87;23.54;91184.44;6123703;23;20056;-78
2021/11/29 12:52:44;;;;;;;2.05;0.98;;;;;;;9.08;23.41;91200.25;6123824;23;20429;-77
2021/11/29 12:55:21;;;;;;;1.85;1.00;;;;;;;9.01;25.05;91210.38;6149371;23;20016;-78
2021/11/29 12:58:08;;;;;;;1.30;0.98;;;;;;;8.35;22.25;91207.78;6123740;23;20019;-77
2021/11/29 13:00:37;;;;;;;1.35;0.93;;;;;;;7.22;24.33;91213.22;6149587;23;20063;-77
2021/11/29 13:03:05;;;;;;;1.23;0.95;;;;;;;7.60;23.76;91205.03;6149632;23;20340;-77
2021/11/29 13:05:55;;;;;;;1.35;1.00;;;;;;;8.24;23.24;91211.72;6149421;23;20429;-78
2021/11/29 13:08:21;;;;;;;1.42;0.90;;;;;;;8.29;23.24;91214.22;6149682;23;20448;-77
2021/11/29 13:10:56;;;;;;;3.33;1.10;;;;;;;8.58;24.99;91220.75;6149851;23;20046;-77
2021/11/29 13:13:22;;;;;;;0.90;0.80;;;;;;;9.11;22.97;91232.78;6149416;23;20009;-77
2021/11/29 13:16:00;;;;;;;1.33;1.00;;;;;;;9.16;23.09;91222.19;6149286;23;20059;-78
2021/11/29 13:19:05;;;;;;;1.25;1.00;;;;;;;9.26;23.06;91231.56;6149739;23;20013;-78
2021/11/29 13:21:49;;;;;;;1.00;0.90;;;;;;;7.80;24.55;91236.84;6148976;23;20021;-77
2021/11/29 13:24:26;;;;;;;1.20;0.98;;;;;;;8.29;24.47;91241.06;6148982;23;20013;-77
2021/11/29 13:27:00;;;;;;;0.88;0.82;;;;;;;8.32;25.37;91242.28;6149639;23;20014;-77
2021/11/29 13:29:36;;;;;;;0.98;0.90;;;;;;;8.38;26.34;91242.94;6149550;23;20076;-78
2021/11/29 13:32:05;;;;;;;1.58;0.80;;;;;;;8.90;24.97;91250.91;6149021;23;20476;-78
2021/11/29 13:35:00;;;;;;;0.82;0.80;;;;;;;9.11;24.44;91253.66;6099101;23;20058;-77
2021/11/29 13:37:29;;;;;;;0.70;0.70;;;;;;;9.27;23.79;91257.34;6105351;23;20338;-77
2021/11/29 13:39:59;;;;;;;0.60;0.60;;;;;;;8.14;22.27;91263.06;6149444;23;20073;-78
2021/11/29 13:42:26;;;;;;;0.82;0.77;;;;;;;7.97;23.59;91259.63;6148945;23;20017;-78
2021/11/29 13:45:02;;;;;;;0.77;0.77;;;;;;;8.53;26.50;91266.78;6149549;23;20001;-78
2021/11/29 13:47:32;;;;;;;0.80;0.68;;;;;;;8.32;22.96;91265.75;6122262;23;20506;-77
2021/11/29 13:50:08;;;;;;;0.80;0.80;;;;;;;8.32;20.98;91271.72;6148757;23;20678;-77
2021/11/29 13:52:37;;;;;;;0.60;0.60;;;;;;;7.82;22.29;91285.00;6149593;23;20436;-78
2021/11/29 13:55:18;;;;;;;0.93;0.80;;;;;;;7.74;21.11;91288.31;6148494;23;20009;-76
2021/11/29 13:57:45;;;;;;;0.80;0.73;;;;;;;7.77;21.10;91282.50;6148806;23;20024;-76
2021/11/29 14:00:19;;;;;;;1.10;0.77;;;;;;;7.50;23.66;91293.84;6123247;23;20001;-77
2021/11/29 14:02:59;;;;;;;1.10;0.70;;;;;;;7.39;23.98;91290.69;6149348;23;20017;-77
2021/11/29 14:05:34;;;;;;;0.90;0.80;;;;;;;7.68;23.74;91300.69;6149310;23;20010;-77
2021/11/29 14:08:06;;;;;;;0.93;0.75;;;;;;;7.19;21.74;91299.72;6148923;23;20009;-77
2021/11/29 14:10:34;;;;;;;;;;;;;;;7.33;23.09;91306.72;6149316;23;20036;-77
2021/11/29 14:13:00;;;;;;;0.85;0.77;;;;;;;6.71;22.11;91295.00;6123227;23;19977;-77
2021/11/29 14:15:30;;;;;;;0.60;0.60;;;;;;;7.18;23.52;91308.59;6123008;23;20437;-78
2021/11/29 14:17:57;;;;;;;0.80;0.80;;;;;;;7.54;23.16;91314.81;6098662;23;20199;-77
2021/11/29 14:20:25;;;;;;;0.55;0.52;;;;;;;7.64;23.09;91310.16;6123016;23;20006;-77
2021/11/29 14:22:52;;;;;;;0.88;0.88;;;;;;;7.55;23.52;91326.78;6149358;23;20014;-77
2021/11/29 14:25:19;;;;;;;1.38;0.80;;;;;;;7.67;22.55;91329.63;6123311;23;20005;-77
2021/11/29 14:27:46;;;;;;;0.80;0.70;;;;;;;7.07;20.06;91333.28;6123518;23;20013;-77
2021/11/29 14:30:12;;;;;;;1.05;0.80;;;;;;;6.68;23.82;91339.78;6149168;23;20077;-77
2021/11/29 14:32:38;;;;;;;1.75;1.00;;;;;;;6.64;23.49;91351.81;6144859;23;20028;-80
2021/11/29 14:35:06;;;;;;;2.10;1.30;;;;;;;6.22;25.24;91358.81;6147555;23;20341;-78
2021/11/29 14:37:37;;;;;;;0.88;0.80;;;;;;;6.80;24.04;91367.88;6149003;23;20014;-76
2021/11/29 14:40:16;;;;;;;1.60;0.88;;;;;;;6.71;22.75;91373.03;6149470;23;20017;-77
2021/11/29 14:42:50;;;;;;;0.60;0.60;;;;;;;6.39;23.34;91364.22;6149774;23;20383;-75
2021/11/29 14:45:22;;;;;;;0.60;0.60;;;;;;;6.65;23.86;91366.38;6150533;23;20014;-77
2021/11/29 14:47:54;;;;;;;0.60;0.60;;;;;;;6.37;25.41;91378.56;6150432;23;20542;-77
2021/11/29 14:50:40;;;;;;;0.93;0.80;;;;;;;5.62;23.83;91386.19;6149994;23;20043;-76
2021/11/29 14:53:12;;;;;;;0.80;0.80;;;;;;;5.15;25.38;91382.69;6150649;23;20036;-77
2021/11/29 14:55:38;;;;;;;;;;;;;;;4.41;25.84;91394.41;6150738;23;20021;-76
2021/11/29 14:58:15;;;;;;;0.60;0.60;;;;;;;4.11;24.20;91404.03;6149255;23;20244;-77
2021/11/29 15:01:09;;;;;;;0.45;0.45;;;;;;;3.72;24.01;91397.09;6149272;23;20014;-77
2021/11/29 15:03:39;;;;;;;1.58;0.77;;;;;;;3.50;25.60;91418.19;6147908;23;20074;-76
2021/11/29 15:06:16;;;;;;;0.52;0.50;;;;;;;3.36;26.55;91402.50;6149019;23;20018;-77
2021/11/29 15:08:59;;;;;;;0.77;0.60;;;;;;;3.07;25.60;91410.94;6148620;23;20025;-77
2021/11/29 15:11:36;;;;;;;0.75;0.63;;;;;;;3.00;27.18;91420.03;6149123;23;20408;-77
2021/11/29 15:14:13;;;;;;;1.90;0.65;;;;;;;2.69;28.16;91400.22;6150224;23;20010;-77
2021/11/29 15:16:44;;;;;;;1.02;0.80;;;;;;;2.55;27.44;91437.22;6150648;23;20066;-78
2021/11/29 15:19:30;;;;;;;1.23;0.80;;;;;;;2.42;27.55;91433.38;6150211;23;20383;-78
2021/11/29 15:22:17;;;;;;;1.92;0.90;;;;;;;2.19;26.51;91457.94;6149549;23;20009;-77
2021/11/29 15:24:48;;;;;;;1.08;0.80;;;;;;;2.15;28.22;91449.94;6150981;23;20500;-77
2021/11/29 15:27:18;;;;;;;1.48;1.00;;;;;;;1.98;28.81;91460.53;6150392;23;20081;-77
2021/11/29 15:29:46;;;;;;;0.63;0.63;;;;;;;1.97;26.56;91471.13;6150045;23;20531;-77
2021/11/29 15:32:30;;;;;;;0.68;0.68;;;;;;;1.85;29.28;91473.97;6150212;23;20025;-78
2021/11/29 15:35:18;;;;;;;0.63;0.63;;;;;;;1.70;29.30;91481.66;6150437;23;20020;-78
2021/11/29 15:38:19;;;;;;;0.85;0.70;;;;;;;1.55;32.66;91485.00;6124539;23;20391;-78
2021/11/29 15:40:50;;;;;;;0.80;0.80;;;;;;;1.41;30.73;91488.06;6149520;23;20091;-78
2021/11/29 15:43:24;;;;;;;1.48;1.05;;;;;;;1.33;30.88;91487.78;6149069;23;20055;-78
2021/11/29 15:46:07;;;;;;;0.82;0.70;;;;;;;1.27;28.94;91494.72;6149013;23;20451;-78
2021/11/29 15:48:38;;;;;;;1.60;0.77;;;;;;;1.19;28.40;91510.69;6148840;23;20354;-77
2021/11/29 15:51:11;;;;;;;0.60;0.60;;;;;;;1.13;29.17;91514.28;6150089;23;20115;-78
2021/11/29 15:53:40;;;;;;;1.40;0.80;;;;;;;1.06;30.70;91524.03;6149362;23;20372;-77
2021/11/29 15:56:07;;;;;;;1.98;1.10;;;;;;;1.03;29.81;91520.16;6148734;23;20037;-77
2021/11/29 15:58:34;;;;;;;2.55;1.48;;;;;;;0.90;30.73;91525.75;6148532;23;20067;-78
2021/11/29 16:01:02;;;;;;;1.85;1.17;;;;;;;0.79;28.20;91525.72;6148817;23;20047;-77
2021/11/29 16:03:28;;;;;;;0.80;0.80;;;;;;;0.78;29.46;91531.88;6149182;23;20021;-77
2021/11/29 16:05:54;;;;;;;2.28;1.20;;;;;;;0.77;30.19;91537.31;6148676;23;20047;-77
2021/11/29 16:08:21;;;;;;;1.42;0.88;;;;;;;0.67;28.38;91530.28;6149693;23;20041;-78
2021/11/29 16:10:52;;;;;;;1.52;0.95;;;;;;;0.66;27.76;91543.41;6149003;23;20021;-77
2021/11/29 16:13:19;;;;;;;1.17;0.88;;;;;;;0.57;27.12;91533.56;6149754;23;20092;-77
2021/11/29 16:15:46;;;;;;;1.08;0.80;;;;;;;0.48;30.75;91539.44;6100118;23;20006;-77
2021/11/29 16:18:13;;;;;;;1.23;1.00;;;;;;;0.41;31.23;91545.56;6151396;23;20014;-77
2021/11/29 16:20:38;;;;;;;2.35;0.90;;;;;;;0.32;31.80;91552.19;6126160;23;20457;-77
2021/11/29 16:23:05;;;;;;;0.77;0.70;;;;;;;0.47;29.81;91554.09;6126942;23;20033;-80
2021/11/29 16:25:31;;;;;;;0.82;0.70;;;;;;;0.47;30.68;91564.38;6154078;23;20000;-77
2021/11/29 16:28:16;;;;;;;2.60;1.40;;;;;;;0.41;29.19;91562.81;6153539;23;20013;-77
2021/11/29 16:30:47;;;;;;;1.30;1.08;;;;;;;0.36;27.83;91560.19;6152343;23;20005;-77
2021/11/29 16:33:15;;;;;;;2.17;1.15;;;;;;;0.26;32.20;91570.41;6128125;23;20013;-81
2021/11/29 16:35:42;;;;;;;0.95;0.85;;;;;;;0.27;29.51;91566.81;6155249;23;20006;-79
2021/11/29 16:38:07;;;;;;;1.02;0.82;;;;;;;0.24;29.76;91578.38;6155626;23;20014;-78
2021/11/29 16:43:56;;;;;;;0.93;0.90;;;;;;;0.05;31.41;91579.78;6155255;23;20110;-79
2021/11/29 16:46:21;;;;;;;1.58;1.38;;;;;;;-0.13;31.02;91591.19;6152986;23;19998;-79
2021/11/29 16:52:41;;;;;;;0.80;0.80;;;;;;;-0.02;31.12;91621.13;6154371;23;20107;-83
2021/11/29 16:55:09;;;;;;;1.23;0.95;;;;;;;0.00;30.26;91616.53;6151722;23;20112;-80
2021/11/29 16:57:38;;;;;;;0.70;0.70;;;;;;;-0.06;31.07;91640.66;6152766;23;20005;-80
2021/11/29 17:00:11;;;;;;;1.05;0.95;;;;;;;-0.13;32.33;91632.34;6152978;23;20014;-80
2021/11/29 17:02:36;;;;;;;1.00;0.90;;;;;;;0.28;28.26;91628.34;6152762;23;20005;-77